Latest Weather Observations for Port Lincoln Airport

IDS60801

Issued at 4:35 pm CDT Thursday 23 October 2014 (issued every 30 minutes, with the page automatically refreshed every 10 minutes)

About weather observations | Map of weather stations | Latest weather observations for SA | Other Formats
Station Details ID: 018192 Name: PORT LINCOLN AWS Lat: -34.60 Lon: 135.88 Height: 8.5 m
Data from the previous 72 hours. | See also: Recent months at Port Lincoln Airport
Date/Time
CDT
Temp
°C
App
Temp
°C
Dew
Point
Rel
Hum
%
Delta-T
°C
Wind Press
QNH
hPa
Press
MSL
hPa
Rain
since 9 am
mm
Dir
 
Spd
km/h
Gust
km/h
Spd
kts
Gust
kts
23/04:30pm 19.0 17.1 11.8 63 4.0 SE 13 20 7 11 1015.8 1015.8 0.0
23/04:00pm 18.6 15.5 11.7 64 3.8 SSE 19 22 10 12 1015.8 1015.8 0.0
23/03:30pm 18.7 16.0 11.8 64 3.8 SSE 17 22 9 12 1016.2 1016.2 0.0
23/03:00pm 19.3 16.6 11.6 61 4.2 E 17 20 9 11 1016.4 1016.4 0.0
23/02:30pm 18.9 15.8 11.5 62 4.1 E 19 24 10 13 1016.4 1016.4 0.0
23/02:00pm 18.7 15.7 11.8 64 3.8 E 19 26 10 14 1016.7 1016.7 0.0
23/01:30pm 19.0 16.7 11.6 62 4.1 ENE 15 20 8 11 1017.3 1017.3 0.0
23/01:00pm 18.2 15.8 11.5 65 3.7 E 15 20 8 11 1017.6 1017.6 0.0
23/12:30pm 17.7 15.1 11.9 69 3.2 E 17 22 9 12 1018.0 1018.0 0.0
23/12:00pm 18.0 15.0 12.0 68 3.3 E 19 26 10 14 1018.0 1018.0 0.0
23/11:30am 17.3 14.1 12.0 71 2.9 E 20 26 11 14 1018.3 1018.3 0.0
23/11:00am 17.4 14.9 12.3 72 2.8 E 17 20 9 11 1018.7 1018.7 0.0
23/10:30am 16.7 13.4 11.6 72 2.8 E 20 24 11 13 1018.9 1018.9 0.0
23/10:00am 16.6 14.3 11.9 74 2.6 E 15 20 8 11 1019.0 1019.0 0.0
23/09:50am 16.2 13.5 11.6 74 2.5 ESE 17 20 9 11 1019.0 1019.0 0.0
23/09:30am 16.1 12.8 11.5 74 2.5 ESE 20 24 11 13 1019.2 1019.2 0.0
23/09:00am 15.6 12.5 11.6 77 2.2 E 19 24 10 13 1019.2 1019.2 0.0
23/08:30am 15.4 12.2 11.2 76 2.2 ESE 19 26 10 14 1019.4 1019.4 0.0
23/08:00am 15.2 11.8 11.4 78 2.0 E 20 24 11 13 1019.1 1019.1 0.0
23/07:30am 15.0 11.8 11.4 79 1.9 ESE 19 24 10 13 1019.1 1019.1 0.0
23/07:00am 14.8 12.1 11.6 81 1.7 ESE 17 24 9 13 1019.2 1019.2 0.0
23/06:30am 14.6 11.9 11.6 82 1.6 ESE 17 22 9 12 1019.2 1019.2 0.0
23/06:00am 14.5 12.6 11.8 84 1.4 SE 13 19 7 10 1019.2 1019.2 0.0
23/05:30am 14.3 11.9 11.5 83 1.5 SE 15 20 8 11 1019.2 1019.2 0.0
23/05:00am 14.3 11.6 11.8 85 1.3 ESE 17 20 9 11 1019.1 1019.1 0.0
23/04:30am 14.3 11.2 11.5 83 1.5 ESE 19 22 10 12 1019.2 1019.2 0.0
23/04:00am 14.3 12.3 11.6 84 1.4 SE 13 20 7 11 1019.5 1019.5 0.0
23/03:30am 14.4 12.1 11.6 83 1.5 ESE 15 20 8 11 1019.6 1019.6 0.0
23/03:00am 14.6 11.3 11.6 82 1.6 SE 20 28 11 15 1020.0 1020.0 0.0
23/02:30am 14.4 10.7 11.4 82 1.6 SSE 22 28 12 15 1020.3 1020.3 0.0
23/02:00am 14.8 11.8 12.1 84 1.5 SE 19 22 10 12 1020.6 1020.6 0.0
23/01:30am 14.6 11.3 11.7 83 1.6 SE 20 30 11 16 1020.9 1020.9 0.0
23/01:00am 14.9 12.4 12.2 84 1.5 SSE 17 24 9 13 1021.1 1021.1 0.0
23/12:30am 14.9 11.8 12.2 84 1.5 SSE 20 26 11 14 1021.4 1021.4 0.0
23/12:00am 14.9 11.8 12.2 84 1.5 SSE 20 26 11 14 1021.7 1021.7 0.0
 
Date/Time
CDT
Temp
°C
App
Temp
°C
Dew
Point
Rel
Hum
%
Delta-T
°C
Wind Press
QNH
hPa
Press
MSL
hPa
Rain
since 9 am
mm
Dir
 
Spd
km/h
Gust
km/h
Spd
kts
Gust
kts
22/11:30pm 14.7 10.8 12.0 84 1.5 SSE 24 30 13 16 1021.7 1021.7 0.0
22/11:00pm 15.0 11.2 12.3 84 1.5 SSE 24 30 13 16 1021.6 1021.6 0.0
22/10:30pm 14.8 11.0 12.3 85 1.4 SSE 24 30 13 16 1021.7 1021.7 0.0
22/10:00pm 14.8 11.3 12.3 85 1.4 SSE 22 28 12 15 1021.7 1021.7 0.0
22/09:30pm 14.7 10.8 12.0 84 1.5 SSE 24 32 13 17 1021.6 1021.6 0.0
22/09:00pm 14.5 10.1 11.6 83 1.5 SSE 26 32 14 17 1021.6 1021.6 0.0
22/08:30pm 14.8 10.9 12.1 84 1.5 S 24 32 13 17 1021.5 1021.5 0.0
22/08:00pm 14.7 9.6 12.0 84 1.5 S 30 35 16 19 1021.2 1021.2 0.0
22/07:30pm 15.1 10.1 12.1 82 1.6 S 30 37 16 20 1021.0 1021.0 0.0
22/07:00pm 15.7 11.1 12.3 80 1.9 S 28 35 15 19 1021.0 1021.0 0.0
22/06:30pm 16.0 11.4 12.4 79 2.0 S 28 37 15 20 1020.7 1020.7 0.0
22/06:00pm 16.2 11.7 12.6 79 2.0 S 28 35 15 19 1020.8 1020.8 0.0
22/05:30pm 17.2 12.3 12.7 75 2.5 S 30 41 16 22 1020.6 1020.6 0.0
22/05:00pm 17.5 12.7 12.8 74 2.6 S 30 37 16 20 1020.4 1020.4 0.0
22/04:33pm 18.2 12.5 12.9 71 3.0 S 35 44 19 24 1020.4 1020.4 0.0
22/04:30pm 18.4 12.6 12.8 70 3.1 S 35 43 19 23 1020.4 1020.4 0.0
22/04:00pm 18.3 12.4 12.5 69 3.2 S 35 44 19 24 1020.1 1020.1 0.0
22/03:30pm 18.6 13.1 12.6 68 3.3 S 33 41 18 22 1020.2 1020.2 0.0
22/03:00pm 18.8 13.3 12.5 67 3.5 S 33 43 18 23 1020.4 1020.4 0.0
22/02:30pm 18.7 13.5 12.7 68 3.4 S 32 37 17 20 1020.5 1020.5 0.0
22/02:00pm 19.1 13.9 12.8 67 3.5 S 32 41 17 22 1020.7 1020.7 0.0
22/01:30pm 18.8 13.4 12.8 68 3.4 S 33 43 18 23 1020.9 1020.9 0.0
22/01:00pm 19.2 14.1 13.6 70 3.2 S 33 39 18 21 1021.0 1021.0 0.0
22/12:30pm 18.7 14.4 13.3 71 3.0 S 28 35 15 19 1020.9 1020.9 0.0
22/12:18pm 17.9 13.2 13.2 74 2.6 S 30 37 16 20 1020.9 1020.9 0.0
22/12:00pm 17.9 12.9 13.4 75 2.5 S 32 37 17 20 1020.9 1020.9 0.0
22/11:30am 18.7 14.9 13.6 72 2.9 S 26 35 14 19 1021.0 1021.0 0.0
22/11:00am 18.0 13.7 13.1 73 2.8 S 28 35 15 19 1021.1 1021.1 0.0
22/10:30am 17.2 12.1 13.1 77 2.3 SSW 32 39 17 21 1021.2 1021.2 0.0
22/10:00am 18.3 14.8 13.4 73 2.8 SSW 24 32 13 17 1020.7 1020.7 0.0
22/09:30am 17.8 15.0 13.3 75 2.5 S 20 28 11 15 1020.3 1020.3 0.0
22/09:00am 16.2 12.6 13.1 82 1.7 S 24 32 13 17 1020.2 1020.2 0.0
22/08:30am 15.3 12.2 13.3 88 1.1 SSW 22 28 12 15 1020.0 1020.0 0.0
22/08:00am 14.8 10.9 13.2 90 0.9 SSW 26 37 14 20 1019.7 1019.7 0.0
22/07:30am 14.5 10.9 13.0 91 0.8 SSW 24 33 13 18 1019.5 1019.5 0.0
22/07:14am 14.5 11.8 13.4 93 0.6 SSW 20 24 11 13 1019.4 1019.4 0.0
22/07:00am 14.2 11.3 12.9 92 0.7 SSW 20 28 11 15 1019.2 1019.2 0.0
22/06:30am 14.2 11.5 12.9 92 0.7 SSW 19 24 10 13 1018.9 1018.9 0.0
22/06:00am 14.5 11.3 13.2 92 0.7 SSW 22 32 12 17 1018.6 1018.6 0.0
22/05:30am 14.8 12.7 13.5 92 0.7 SSW 17 22 9 12 1018.2 1018.2 0.0
22/05:00am 14.8 12.6 13.3 91 0.8 SW 17 22 9 12 1018.3 1018.3 0.0
22/04:30am 15.1 13.3 13.3 89 1.0 SW 15 20 8 11 1018.0 1018.0 0.0
22/04:00am 15.6 12.5 13.4 87 1.2 SSW 22 28 12 15 1017.8 1017.8 0.0
22/03:30am 15.8 12.9 12.9 83 1.6 SSW 20 32 11 17 1017.4 1017.4 0.0
22/03:00am 16.4 13.1 12.9 80 1.9 SSW 22 30 12 16 1017.4 1017.4 0.0
22/02:30am 16.7 13.7 12.7 77 2.2 SSW 20 26 11 14 1017.6 1017.6 0.0
22/02:00am 17.0 14.0 12.5 75 2.5 SSW 20 26 11 14 1017.7 1017.7 0.0
22/01:30am 17.7 14.9 11.5 67 3.4 SSW 17 22 9 12 1017.9 1017.9 0.0
22/01:00am 18.4 15.1 11.5 64 3.8 SSW 20 28 11 15 1018.0 1018.0 0.0
22/12:30am 18.0 14.0 11.8 67 3.4 SSW 24 35 13 19 1018.0 1018.0 0.0
22/12:00am 18.7 13.8 11.3 62 4.0 SSW 28 35 15 19 1017.8 1017.8 0.0
 
Date/Time
CDT
Temp
°C
App
Temp
°C
Dew
Point
Rel
Hum
%
Delta-T
°C
Wind Press
QNH
hPa
Press
MSL
hPa
Rain
since 9 am
mm
Dir
 
Spd
km/h
Gust
km/h
Spd
kts
Gust
kts
21/11:30pm 18.7 14.9 11.3 62 4.0 SSW 22 30 12 16 1018.1 1018.1 0.0
21/11:00pm 18.9 13.6 11.2 61 4.2 WSW 30 41 16 22 1017.3 1017.3 0.0
21/10:44pm 19.6 14.4 10.3 55 5.0 WSW 28 43 15 23 1017.3 1017.3 0.0
21/10:30pm 21.9 17.7 5.8 35 8.1 SW 17 24 9 13 1017.1 1017.1 0.0
21/10:00pm 20.4 18.5 7.7 44 6.5 W 7 11 4 6 1017.0 1017.0 0.0
21/09:30pm 22.0 19.6 7.0 38 7.7 SW 9 11 5 6 1016.7 1016.7 0.0
21/09:00pm 21.1 18.1 7.7 42 6.9 W 13 17 7 9 1016.6 1016.6 0.0
21/08:30pm 21.0 19.3 9.9 49 6.0 WSW 9 15 5 8 1016.4 1016.4 0.0
21/08:00pm 20.9 20.4 12.6 59 4.7 SSW 7 9 4 5 1015.4 1015.4 0.0
21/07:30pm 21.8 20.7 13.2 58 4.9 S 11 15 6 8 1015.4 1015.4 0.0
21/07:00pm 23.7 21.3 12.7 50 6.3 SE 17 26 9 14 1015.0 1015.0 0.0
21/06:30pm 26.0 22.4 13.2 45 7.5 S 24 28 13 15 1014.8 1014.8 0.0
21/06:00pm 25.4 24.7 14.2 50 6.6 S 11 15 6 8 1014.5 1014.5 0.0
21/05:30pm 23.3 23.4 15.4 61 4.7 NE 9 17 5 9 1014.7 1014.7 0.0
21/05:00pm 24.1 21.7 13.9 53 6.0 E 19 24 10 13 1014.5 1014.5 0.0
21/04:30pm 24.4 23.6 13.9 52 6.2 ENE 11 17 6 9 1015.4 1015.4 0.0
21/04:00pm 24.4 24.1 14.5 54 5.9 SSW 9 15 5 8 1015.4 1015.4 0.0
21/03:30pm 25.5 25.4 14.0 49 6.8 SSW 7 13 4 7 1015.3 1015.3 0.0
21/03:00pm 26.2 26.2 15.3 51 6.6 S 9 13 5 7 1015.4 1015.4 0.0
21/02:30pm 27.0 25.7 12.6 41 8.4 ESE 11 15 6 8 1015.9 1015.9 0.0
21/02:17pm 28.6 26.1 11.2 34 10.0 ENE 15 17 8 9 1015.9 1015.9 0.0
21/02:00pm 33.6 28.1 0.3 12 16.4 NNW 19 28 10 15 1015.8 1015.8 0.0
21/01:30pm 33.9 29.1 0.5 12 16.5 NNW 15 26 8 14 1016.2 1016.2 0.0
21/01:00pm 29.2 27.3 13.0 37 9.6 E 15 20 8 11 1016.6 1016.6 0.0
21/12:30pm 29.8 27.2 9.3 28 11.4 ESE 13 24 7 13 1017.0 1017.0 0.0
21/12:00pm 27.7 26.6 14.3 43 8.0 ESE 13 20 7 11 1017.5 1017.5 0.0
21/11:30am 24.3 23.3 13.5 51 6.3 S 11 13 6 7 1017.9 1017.9 0.0
21/11:00am 23.3 22.6 14.3 57 5.3 SSE 11 15 6 8 1017.6 1017.6 0.0
21/10:30am 22.8 22.6 14.6 60 4.8 SSE 9 13 5 7 1017.7 1017.7 0.0
21/10:00am 22.6 22.2 15.2 63 4.4 S 11 15 6 8 1017.6 1017.6 0.0
21/09:30am 21.9 21.5 14.0 61 4.6 S 9 13 5 7 1017.4 1017.4 0.0
21/09:00am 19.8 20.4 15.4 76 2.6 SSE 6 7 3 4 1017.3 1017.3 0.0
21/08:30am 18.1 19.1 16.3 89 1.1 S 6 7 3 4 1017.4 1017.4 0.0
21/08:00am 17.1 18.5 16.5 96 0.4 S 4 7 2 4 1017.3 1017.3 0.0
21/07:30am 14.3 15.4 13.5 95 0.4 CALM 0 0 0 0 1017.0 1017.0 0.0
21/07:00am 14.2 14.1 13.4 95 0.4 S 6 7 3 4 1016.9 1016.9 0.0
21/06:30am 13.7 13.3 12.9 95 0.4 SSW 7 9 4 5 1016.7 1016.7 0.0
21/06:00am 14.7 14.6 13.9 95 0.4 SSW 7 9 4 5 1016.4 1016.4 0.0
21/05:30am 15.0 14.3 14.4 96 0.3 SSW 11 11 6 6 1016.2 1016.2 0.0
21/05:00am 14.5 14.5 13.7 95 0.4 SW 6 9 3 5 1016.3 1016.3 0.0
21/04:30am 14.9 15.1 14.3 96 0.3 SSW 6 7 3 4 1016.0 1016.0 0.0
21/04:00am 15.0 15.1 14.4 96 0.3 S 7 9 4 5 1016.4 1016.4 0.0
21/03:30am 14.2 13.6 13.6 96 0.3 S 9 9 5 5 1016.5 1016.5 0.0
21/03:00am 11.7 10.3 10.9 95 0.4 SSW 9 9 5 5 1016.6 1016.6 0.0
21/02:30am 11.6 11.1 10.7 94 0.5 S 4 7 2 4 1016.8 1016.8 0.0
21/02:00am 11.5 10.3 10.4 93 0.6 S 7 9 4 5 1017.4 1017.4 0.0
21/01:30am 11.4 10.4 10.3 93 0.6 SSW 6 7 3 4 1017.8 1017.8 0.0
21/01:00am 13.7 12.5 12.8 94 0.5 S 11 11 6 6 1018.2 1018.2 0.0
21/12:30am 11.9 11.7 10.5 91 0.7 SSE 2 6 1 3 1018.4 1018.4 0.0
21/12:00am 13.2 12.0 11.6 90 0.8 S 9 9 5 5 1019.0 1019.0 0.0
 
Date/Time
CDT
Temp
°C
App
Temp
°C
Dew
Point
Rel
Hum
%
Delta-T
°C
Wind Press
QNH
hPa
Press
MSL
hPa
Rain
since 9 am
mm
Dir
 
Spd
km/h
Gust
km/h
Spd
kts
Gust
kts
20/11:30pm 13.3 12.7 11.7 90 0.9 SW 6 7 3 4 1019.3 1019.3 0.0
20/11:00pm 15.5 14.9 13.5 88 1.1 S 9 11 5 6 1019.5 1019.5 0.0
20/10:30pm 14.1 14.9 12.5 90 0.9 CALM 0 0 0 0 1019.7 1019.7 0.0
20/10:00pm 14.4 14.0 12.4 88 1.1 S 6 7 3 4 1019.9 1019.9 0.0
20/09:30pm 14.7 14.7 12.4 86 1.2 SSW 4 7 2 4 1019.9 1019.9 0.0
20/09:00pm 15.6 15.3 13.3 86 1.3 SSW 7 9 4 5 1019.9 1019.9 0.0
20/08:30pm 16.3 16.0 13.4 83 1.6 S 7 9 4 5 1019.7 1019.7 0.0
20/08:00pm 16.9 16.3 13.6 81 1.9 S 9 11 5 6 1019.4 1019.4 0.0
20/07:30pm 18.3 17.8 13.8 75 2.6 S 9 11 5 6 1019.2 1019.2 0.0
20/07:00pm 19.3 18.5 14.1 72 3.0 S 11 13 6 7 1018.9 1018.9 0.0
20/06:30pm 19.4 18.1 13.8 70 3.2 S 13 17 7 9 1018.8 1018.8 0.0
20/06:00pm 20.3 19.2 14.2 68 3.5 SSE 13 15 7 8 1019.0 1019.0 0.0
20/05:30pm 20.8 19.8 14.5 67 3.7 S 13 17 7 9 1019.1 1019.1 0.0
20/05:00pm 21.1 19.7 14.5 66 3.9 SSE 15 17 8 9 1019.2 1019.2 0.0

Other Formats:

Comma delimited format used in spreadsheet applications
http://www.bom.gov.au/fwo/IDS60801/IDS60801.95661.axf

JavaScript Object Notation format (JSON) in row-major order
http://www.bom.gov.au/fwo/IDS60801/IDS60801.95661.json